createdAt,value
2018-09-09T00:54:34.866Z,69.20
2018-09-09T00:57:03.582Z,73.20
2018-09-09T00:59:33.933Z,69.80
2018-09-09T01:02:04.075Z,75.10
2018-09-09T01:12:02.045Z,67.50
2018-09-09T01:14:30.630Z,66.60
2018-09-09T01:46:39.535Z,65.60
2018-09-09T01:51:35.942Z,62.80
2018-09-09T01:56:32.682Z,60.90
2018-09-09T01:59:01.634Z,69.30
2018-09-09T02:03:58.070Z,69.30
2018-09-09T02:26:12.702Z,70.40
2018-09-09T03:00:48.788Z,73.80
2018-09-09T03:18:06.876Z,89.30
2018-09-09T03:20:35.288Z,82.90
2018-09-09T03:23:03.614Z,80.40
2018-09-09T03:25:32.914Z,84.20
2018-09-09T03:28:02.315Z,85.20
2018-09-09T03:30:31.275Z,82.10
2018-09-09T03:32:59.930Z,86.00
2018-09-09T03:35:28.866Z,85.90
2018-09-09T03:37:57.227Z,80.40
2018-09-09T03:40:25.575Z,81.20
2018-09-09T03:42:54.202Z,81.20
2018-09-09T03:45:22.816Z,80.30
2018-09-09T03:47:51.171Z,84.80
2018-09-09T03:50:19.539Z,80.30
2018-09-09T03:52:47.908Z,81.60
2018-09-09T03:55:16.902Z,78.90
2018-09-09T03:57:45.619Z,79.10
2018-09-09T04:00:15.091Z,78.90
2018-09-09T04:02:44.082Z,79.70
2018-09-09T04:05:12.435Z,80.60
2018-09-09T04:07:41.067Z,83.80
2018-09-09T04:10:09.767Z,76.60
2018-09-09T04:12:38.127Z,79.80
2018-09-09T04:15:06.683Z,79.40
2018-09-09T04:17:35.034Z,79.70
2018-09-09T04:20:03.710Z,79.80
2018-09-09T04:22:32.092Z,80.90
2018-09-09T04:25:01.023Z,81.50
2018-09-09T04:27:30.014Z,82.50
2018-09-09T04:29:59.215Z,83.50
2018-09-09T04:32:27.564Z,83.80
2018-09-09T04:34:55.914Z,83.70
2018-09-09T04:37:25.008Z,87.90
2018-09-09T04:39:53.667Z,87.30
2018-09-09T04:42:22.047Z,86.90
2018-09-09T04:44:50.405Z,85.70
2018-09-09T04:47:19.297Z,86.20
2018-09-09T04:49:47.932Z,84.70
2018-09-09T04:52:16.511Z,89.70
2018-09-09T04:54:44.851Z,90.20
2018-09-09T04:57:13.232Z,90.80
2018-09-09T04:59:41.835Z,85.10
2018-09-09T05:02:10.238Z,87.10
2018-09-09T05:04:38.586Z,89.40
2018-09-09T05:07:06.988Z,88.90
2018-09-09T05:09:35.399Z,91.20
2018-09-09T05:12:04.142Z,92.00
2018-09-09T05:14:32.503Z,92.00
2018-09-09T05:17:01.169Z,93.40
2018-09-09T05:54:27.938Z,1.00
2018-09-09T06:21:51.722Z,1.00
2018-09-09T06:24:20.322Z,5.40
2018-09-09T06:29:19.778Z,1.00
2018-09-09T06:36:47.603Z,99.90
2018-09-09T06:41:46.253Z,99.90
2018-09-09T06:44:15.482Z,1.00
2018-09-09T06:46:43.843Z,1.00
2018-09-09T06:49:12.202Z,99.90
2018-09-09T06:51:40.842Z,1.00
2018-09-09T06:59:06.828Z,99.90
2018-09-09T07:01:35.199Z,69.50
2018-09-09T07:04:03.813Z,99.90
2018-09-09T07:06:32.659Z,1.00
2018-09-09T07:09:01.022Z,99.90
2018-09-09T07:11:30.476Z,99.90
2018-09-09T07:13:58.713Z,99.90
2018-09-09T07:16:27.463Z,1.00
2018-09-09T07:18:56.302Z,1.00
2018-09-09T07:21:24.721Z,1.00
2018-09-09T07:23:53.307Z,1.00
2018-09-09T07:31:20.300Z,1.00
2018-09-09T07:51:15.042Z,1.00
2018-09-09T07:56:12.264Z,1.00
2018-09-09T08:11:03.534Z,1.00
2018-09-09T08:16:00.128Z,82.00
2018-09-09T08:18:28.538Z,99.90
2018-09-09T08:20:57.226Z,99.90
2018-09-09T08:23:25.950Z,99.90
2018-09-09T08:25:54.287Z,99.90
2018-09-09T08:28:22.662Z,99.90
2018-09-09T08:30:51.710Z,99.90
2018-09-09T08:33:20.182Z,99.90
2018-09-09T08:35:48.823Z,99.90
2018-09-09T08:38:17.630Z,1.00
2018-09-09T08:40:45.966Z,1.00
2018-09-09T08:43:15.215Z,1.00
2018-09-09T08:45:43.551Z,1.00
2018-09-09T08:48:12.235Z,1.00
2018-09-09T08:50:40.708Z,1.00
2018-09-09T08:53:09.351Z,1.00
2018-09-09T08:58:06.334Z,87.50
2018-09-09T09:00:34.667Z,1.00
2018-09-09T09:10:31.362Z,1.00
2018-09-09T09:18:01.418Z,99.90
2018-09-09T09:20:30.194Z,32.00
2018-09-09T09:22:58.926Z,1.00
2018-09-09T09:25:29.797Z,1.00
2018-09-09T09:27:59.466Z,1.00
2018-09-09T09:30:28.936Z,1.00
2018-09-09T09:32:57.651Z,1.00
2018-09-09T09:35:57.769Z,1.00
2018-09-09T09:38:31.022Z,1.00
2018-09-09T09:43:29.770Z,3.90
2018-09-09T09:45:58.179Z,99.90
2018-09-09T09:50:55.106Z,1.00
2018-09-09T09:53:23.727Z,1.00
2018-09-09T09:55:54.348Z,1.00
2018-09-09T09:58:23.054Z,1.00
2018-09-09T10:01:01.621Z,1.00
2018-09-09T10:03:30.135Z,1.00
2018-09-09T10:05:58.520Z,1.00
2018-09-09T10:08:26.899Z,1.00
2018-09-09T10:10:55.314Z,1.00
2018-09-09T10:13:23.719Z,1.00
2018-09-09T10:15:52.111Z,99.90
2018-09-09T10:18:20.477Z,99.90
2018-09-09T10:20:48.843Z,99.90
2018-09-09T10:23:17.239Z,23.60
2018-09-09T10:25:46.027Z,1.00
2018-09-09T10:30:42.804Z,18.10
2018-09-09T10:35:41.037Z,78.20
2018-09-09T10:38:09.402Z,99.90
2018-09-09T10:40:37.787Z,99.90
2018-09-09T10:43:07.070Z,99.90
2018-09-09T10:45:35.446Z,1.00
2018-09-09T10:48:03.802Z,1.00
2018-09-09T10:50:32.483Z,99.90
2018-09-09T10:53:00.856Z,21.40
2018-09-09T10:55:29.506Z,1.00
2018-09-09T10:57:57.882Z,1.00
2018-09-09T11:00:26.855Z,1.00
2018-09-09T11:02:55.485Z,1.00
2018-09-09T11:05:23.868Z,1.00
2018-09-09T11:07:52.647Z,1.00
2018-09-09T11:10:21.019Z,1.00
2018-09-09T11:12:49.888Z,1.00
2018-09-09T11:15:18.790Z,1.00
2018-09-09T11:17:48.011Z,1.00
2018-09-09T11:20:16.670Z,1.00
2018-09-09T11:22:45.276Z,1.00
2018-09-09T11:25:13.638Z,99.90
2018-09-09T11:27:42.464Z,1.00
2018-09-09T11:30:10.823Z,1.00
2018-09-09T11:32:39.506Z,1.00
2018-09-09T11:35:08.243Z,1.00
2018-09-09T11:37:36.686Z,1.00
2018-09-09T11:40:05.106Z,19.30
2018-09-09T11:42:33.735Z,1.00
2018-09-09T11:45:02.108Z,1.00
2018-09-09T11:47:30.490Z,1.00
2018-09-09T11:49:59.086Z,99.90
2018-09-09T11:52:28.094Z,99.90
2018-09-09T11:54:57.101Z,99.90
2018-09-09T11:57:25.476Z,99.90
2018-09-09T11:59:54.167Z,1.00
2018-09-09T12:02:22.550Z,99.90
2018-09-09T12:04:53.038Z,94.30
2018-09-09T12:09:52.525Z,99.90
2018-09-09T12:12:22.723Z,99.90
2018-09-09T12:14:52.328Z,1.00
2018-09-09T12:17:20.696Z,99.90
2018-09-09T12:19:49.047Z,1.00
2018-09-09T12:24:47.018Z,1.00
2018-09-09T12:27:15.703Z,1.00
2018-09-09T12:29:44.039Z,1.00
2018-09-09T12:32:12.438Z,1.00
2018-09-09T12:34:40.763Z,99.90
2018-09-09T12:37:09.171Z,1.00
2018-09-09T12:39:37.799Z,1.00
2018-09-09T12:42:06.242Z,1.00
2018-09-09T12:44:40.371Z,1.00
2018-09-09T12:47:14.289Z,1.00
2018-09-09T12:49:42.578Z,1.00
2018-09-09T12:52:10.968Z,1.00
2018-09-09T12:57:07.715Z,1.00
2018-09-09T12:59:38.295Z,1.00
2018-09-09T13:04:35.708Z,1.00
2018-09-09T13:07:04.084Z,1.00
2018-09-09T13:09:32.695Z,1.00
2018-09-09T13:12:01.153Z,1.00
2018-09-09T13:14:29.736Z,78.00
2018-09-09T13:16:58.631Z,1.00
2018-09-09T13:19:27.270Z,99.90
2018-09-09T13:21:56.554Z,99.90
2018-09-09T13:24:25.206Z,99.90
2018-09-09T13:26:53.923Z,99.90
2018-09-09T13:29:22.353Z,99.90
2018-09-09T13:31:51.010Z,99.90
2018-09-09T13:34:19.423Z,99.90
2018-09-09T13:36:48.067Z,99.90
2018-09-09T13:39:16.454Z,99.90
2018-09-09T13:41:44.810Z,99.90
2018-09-09T13:44:13.527Z,99.90
2018-09-09T13:46:41.915Z,99.90
2018-09-09T13:49:10.315Z,99.90
2018-09-09T13:51:38.767Z,99.90
2018-09-09T13:54:07.683Z,99.90
2018-09-09T13:56:36.279Z,99.90
2018-09-09T13:59:04.682Z,99.90
2018-09-09T14:01:34.049Z,1.00
2018-09-09T14:04:02.661Z,1.00
2018-09-09T14:06:31.025Z,99.90
2018-09-09T14:08:59.394Z,1.00
2018-09-09T14:11:28.040Z,99.90
2018-09-09T14:13:56.572Z,99.90
2018-09-09T14:16:25.243Z,99.90
2018-09-09T14:18:53.918Z,1.00
2018-09-09T14:21:22.290Z,1.00
2018-09-09T14:23:50.638Z,1.00
2018-09-09T14:26:18.998Z,1.00
2018-09-09T14:28:48.362Z,1.00
2018-09-09T14:31:16.706Z,1.00
2018-09-09T14:33:45.334Z,1.00
2018-09-09T14:36:13.735Z,1.00
2018-09-09T14:38:42.106Z,1.00
2018-09-09T14:43:38.563Z,99.90
2018-09-09T14:46:07.222Z,99.90
2018-09-09T14:48:36.099Z,99.90
2018-09-09T14:51:04.478Z,99.90
2018-09-09T14:53:33.217Z,99.90
2018-09-09T14:56:02.898Z,99.90
2018-09-09T14:58:31.602Z,1.00
2018-09-09T15:01:00.494Z,1.00
2018-09-09T15:03:28.875Z,1.00
2018-09-09T15:05:57.519Z,1.00
2018-09-09T15:08:26.114Z,1.00
2018-09-09T15:10:54.779Z,1.00
2018-09-09T15:13:23.135Z,1.00
2018-09-09T15:15:51.494Z,1.00
2018-09-09T15:25:49.036Z,14.90
2018-09-09T15:28:17.397Z,1.00
2018-09-09T15:30:46.043Z,1.00
2018-09-09T15:33:14.706Z,1.00
2018-09-09T15:38:13.272Z,16.60
2018-09-09T15:40:42.037Z,1.00
2018-09-09T15:43:10.412Z,1.00
2018-09-09T15:45:39.351Z,13.10
2018-09-09T15:48:08.031Z,1.00
2018-09-09T15:50:36.719Z,1.00
2018-09-09T15:53:05.606Z,1.00
2018-09-09T15:55:33.959Z,1.00
2018-09-09T15:58:02.688Z,1.00
2018-09-09T16:00:31.603Z,1.00
2018-09-09T16:02:59.852Z,1.00
2018-09-09T16:05:28.975Z,1.00
2018-09-09T16:07:57.723Z,1.00
2018-09-09T16:10:26.083Z,1.00
2018-09-09T16:12:54.521Z,1.00
2018-09-09T16:15:23.314Z,5.00
2018-09-09T16:17:51.671Z,1.00
2018-09-09T16:20:20.022Z,1.00
2018-09-09T16:22:48.404Z,1.00
2018-09-09T16:25:16.790Z,1.00
2018-09-09T16:27:45.317Z,1.00
2018-09-09T16:30:13.702Z,1.00
2018-09-09T16:32:42.291Z,1.00
2018-09-09T16:35:10.854Z,1.00
2018-09-09T16:37:39.523Z,1.00
2018-09-09T16:40:07.927Z,1.00
2018-09-09T16:42:36.283Z,1.00
2018-09-09T16:45:05.386Z,1.00
2018-09-09T16:47:34.335Z,1.00
2018-09-09T16:50:02.714Z,1.00
2018-09-09T16:52:31.858Z,1.00
2018-09-09T16:55:00.274Z,1.00
2018-09-09T16:57:28.974Z,1.00
2018-09-09T16:59:57.323Z,1.00
2018-09-09T17:02:26.490Z,1.00
2018-09-09T17:04:54.834Z,1.00
2018-09-09T17:07:23.228Z,1.00
2018-09-09T17:09:51.595Z,1.00
2018-09-09T17:12:19.999Z,1.00
2018-09-09T17:22:17.210Z,15.90
2018-09-09T17:27:13.940Z,68.50
2018-09-09T17:29:43.107Z,1.00
2018-09-09T17:39:36.510Z,90.80
2018-09-09T17:42:04.918Z,1.00
2018-09-09T17:44:33.299Z,1.00
2018-09-09T17:47:01.959Z,1.00
2018-09-09T17:49:30.894Z,1.00
2018-09-09T17:51:59.282Z,1.00
2018-09-09T17:54:27.742Z,1.00
2018-09-09T17:56:56.417Z,1.00
2018-09-09T17:59:25.050Z,1.00
2018-09-09T18:01:53.483Z,1.00
2018-09-09T18:04:21.848Z,1.00
2018-09-09T18:06:50.776Z,1.00
2018-09-09T18:09:19.146Z,1.00
2018-09-09T18:11:47.810Z,1.00
2018-09-09T18:16:45.190Z,1.00
2018-09-09T18:19:13.576Z,1.00
2018-09-09T18:21:42.554Z,1.00
2018-09-09T18:29:08.806Z,70.60
2018-09-09T18:31:37.914Z,1.00
2018-09-09T18:34:06.689Z,1.00
2018-09-09T18:39:03.891Z,99.90
2018-09-09T18:46:28.580Z,1.00
2018-09-09T18:48:57.258Z,1.00
2018-09-09T18:51:26.554Z,1.00
2018-09-09T18:56:23.848Z,99.90
2018-09-09T18:58:52.243Z,47.10
2018-09-09T19:01:20.895Z,99.90
2018-09-09T19:03:49.774Z,1.00
2018-09-09T19:06:18.684Z,99.90
2018-09-09T19:08:47.446Z,1.00
2018-09-09T19:11:16.435Z,1.00
2018-09-09T19:13:44.870Z,1.00
2018-09-09T19:16:13.246Z,1.00
2018-09-09T19:18:41.663Z,97.70
2018-09-09T19:21:10.395Z,99.90
2018-09-09T19:23:39.298Z,99.90
2018-09-09T19:26:08.306Z,99.90
2018-09-09T19:28:37.127Z,99.90
2018-09-09T19:36:02.943Z,1.00
2018-09-09T19:38:31.706Z,1.00
2018-09-09T19:41:00.058Z,1.00
2018-09-09T19:43:28.850Z,1.00
2018-09-09T19:45:57.639Z,99.90
2018-09-09T19:48:26.576Z,99.90
2018-09-09T19:50:54.998Z,99.90
2018-09-09T19:53:23.822Z,24.20
2018-09-09T19:55:52.678Z,1.00
2018-09-09T19:58:21.220Z,99.90
2018-09-09T20:30:31.361Z,1.00
2018-09-09T20:35:28.891Z,1.00
2018-09-09T20:37:57.592Z,1.00
2018-09-09T20:40:25.987Z,1.00
2018-09-09T20:42:54.671Z,1.00
2018-09-09T20:45:23.846Z,1.00
2018-09-09T20:47:52.523Z,1.00
2018-09-09T20:50:20.884Z,1.00
2018-09-09T20:52:49.270Z,1.00
2018-09-09T20:55:18.069Z,1.00
2018-09-09T20:57:46.743Z,1.00
2018-09-09T21:00:15.305Z,1.00
2018-09-09T21:02:43.625Z,1.00
2018-09-09T21:05:12.290Z,1.00
2018-09-09T21:10:08.754Z,1.00
2018-09-09T21:12:37.375Z,1.00
2018-09-09T21:15:07.359Z,1.00
2018-09-09T21:17:36.430Z,1.00
2018-09-09T21:20:05.462Z,1.00
2018-09-09T21:22:34.121Z,1.00
2018-09-09T21:25:03.134Z,1.00
2018-09-09T21:27:31.554Z,1.00
2018-09-09T21:30:00.191Z,1.00
2018-09-09T21:32:28.806Z,1.00
2018-09-09T21:34:58.051Z,1.00
2018-09-09T21:37:26.734Z,1.00
2018-09-09T21:39:55.096Z,1.00
2018-09-09T21:42:23.714Z,1.00
2018-09-09T21:44:52.123Z,1.00
2018-09-09T21:47:21.169Z,6.00
2018-09-09T21:49:49.646Z,1.00
2018-09-09T21:52:18.384Z,1.00
2018-09-09T21:54:46.810Z,1.00
2018-09-09T21:57:15.426Z,1.00
2018-09-09T21:59:44.083Z,1.00
2018-09-09T22:02:14.514Z,1.50
2018-09-09T22:04:43.198Z,5.40
2018-09-09T22:07:13.870Z,6.10
2018-09-09T22:09:43.542Z,12.00
2018-09-09T22:12:12.668Z,11.60
2018-09-09T22:14:41.854Z,8.30
2018-09-09T22:17:11.249Z,8.90
2018-09-09T22:19:39.935Z,9.70
2018-09-09T22:22:08.930Z,11.00
2018-09-09T22:24:37.294Z,18.20
2018-09-09T22:27:06.178Z,17.60
2018-09-09T22:29:34.539Z,19.90
2018-09-09T22:32:02.918Z,16.00
2018-09-09T22:34:31.527Z,22.20
2018-09-09T22:37:00.378Z,26.90
2018-09-09T22:39:28.768Z,24.50
2018-09-09T22:41:57.150Z,23.50
2018-09-09T22:44:26.667Z,17.30
2018-09-09T22:46:55.583Z,18.60
2018-09-09T22:49:24.358Z,30.60
2018-09-09T22:51:52.735Z,30.60
2018-09-09T22:54:21.103Z,26.10
2018-09-09T22:56:49.599Z,26.20
2018-09-09T22:59:18.598Z,27.60
2018-09-09T23:01:46.983Z,33.60
2018-09-09T23:04:15.351Z,39.50
2018-09-09T23:06:43.739Z,41.50
2018-09-09T23:09:13.128Z,45.80
2018-09-09T23:11:41.488Z,47.80
2018-09-09T23:14:10.275Z,44.50
2018-09-09T23:16:39.743Z,39.70
2018-09-09T23:19:08.104Z,34.40
2018-09-09T23:21:36.806Z,31.30
2018-09-09T23:24:05.196Z,35.60
2018-09-09T23:26:33.575Z,37.50
2018-09-09T23:29:02.191Z,39.90
2018-09-09T23:31:30.877Z,40.20
2018-09-09T23:33:59.236Z,41.30
2018-09-09T23:36:27.718Z,48.20
2018-09-09T23:38:56.083Z,67.80
2018-09-09T23:41:24.534Z,63.40
2018-09-09T23:43:53.170Z,48.00
2018-09-09T23:46:21.545Z,48.80
2018-09-09T23:48:49.906Z,58.70
2018-09-09T23:51:18.603Z,69.70
2018-09-09T23:53:47.725Z,69.60
2018-09-09T23:56:16.542Z,73.10
2018-09-09T23:58:44.890Z,79.00
